Time;durP1;ratioP1;P1;durP2;ratioP2;P2;SDS_P1;SDS_P2;PMS_P1;PMS_P2;Temp;Humidity;BMP_temperature;BMP_pressure;BME280_temperature;BME280_humidity;BME280_pressure;Samples;Min_cycle;Max_cycle;Signal;HPM_P1;HPM_P2
2022/05/17 00:00:47;;;;;;;5.85;2.72;;;11.80;65.40;;;;;;5055421;28;20036;-88
2022/05/17 00:03:14;;;;;;;6.40;2.70;;;11.60;65.80;;;;;;5055523;28;20108;-88
2022/05/17 00:05:41;;;;;;;5.15;2.88;;;11.40;66.00;;;;;;5056599;28;20383;-87
2022/05/17 00:08:08;;;;;;;3.95;2.80;;;11.30;66.40;;;;;;5055533;28;20384;-87
2022/05/17 00:10:34;;;;;;;5.28;3.20;;;11.20;66.70;;;;;;5054108;28;20475;-88
2022/05/17 00:12:59;;;;;;;5.32;3.10;;;11.10;67.20;;;;;;5056766;28;20029;-87
2022/05/17 00:15:25;;;;;;;3.63;2.75;;;10.90;67.40;;;;;;5056434;28;20022;-87
2022/05/17 00:17:53;;;;;;;5.78;2.90;;;10.80;67.70;;;;;;5056317;28;20028;-87
2022/05/17 00:20:20;;;;;;;5.47;2.60;;;10.70;68.30;;;;;;5054998;28;20041;-88
2022/05/17 00:22:46;;;;;;;5.60;3.00;;;10.50;68.70;;;;;;5055061;28;20024;-88
2022/05/17 00:25:14;;;;;;;3.92;2.45;;;10.50;69.20;;;;;;5055034;28;20028;-88
2022/05/17 00:27:40;;;;;;;4.93;3.00;;;10.30;69.40;;;;;;5054662;28;20033;-88
2022/05/17 00:30:08;;;;;;;6.45;2.97;;;10.20;69.50;;;;;;5054941;28;20025;-88
2022/05/17 00:33:05;;;;;;;4.63;3.00;;;10.10;69.90;;;;;;5054889;28;20028;-88
2022/05/17 00:35:31;;;;;;;3.97;2.47;;;10.00;70.50;;;;;;5054892;28;20060;-87
2022/05/17 00:37:57;;;;;;;5.35;2.90;;;9.90;70.40;;;;;;5055988;28;20029;-88
2022/05/17 00:40:22;;;;;;;3.22;2.70;;;9.80;70.70;;;;;;5054650;28;20079;-88
2022/05/17 00:42:48;;;;;;;5.45;2.80;;;9.70;71.00;;;;;;5055762;28;20029;-88
2022/05/17 00:45:14;;;;;;;3.08;2.63;;;9.60;71.60;;;;;;5054674;28;20025;-88
2022/05/17 00:47:44;;;;;;;6.45;2.72;;;9.50;71.50;;;;;;5054521;28;20032;-88
2022/05/17 00:50:22;;;;;;;5.10;3.08;;;9.40;71.80;;;;;;5054318;28;20066;-88
2022/05/17 00:53:04;;;;;;;6.22;3.28;;;9.30;72.60;;;;;;5055343;28;20412;-88
2022/05/17 00:55:48;;;;;;;7.53;3.33;;;9.20;72.30;;;;;;5054397;28;20025;-87
2022/05/17 00:58:23;;;;;;;8.13;2.70;;;9.20;72.50;;;;;;5055597;28;20139;-88
2022/05/17 01:01:09;;;;;;;4.32;2.80;;;9.10;72.80;;;;;;5054407;28;20031;-88
2022/05/17 01:03:45;;;;;;;5.32;2.72;;;9.00;73.50;;;;;;5055421;28;20464;-88
2022/05/17 01:06:11;;;;;;;3.60;2.90;;;8.90;73.80;;;;;;5055478;28;20029;-88
2022/05/17 01:08:36;;;;;;;3.35;2.72;;;8.80;74.20;;;;;;5054325;28;20024;-88
2022/05/17 01:11:02;;;;;;;6.50;2.95;;;8.80;74.10;;;;;;5055328;28;20102;-88
2022/05/17 01:16:12;;;;;;;4.40;2.78;;;8.60;74.30;;;;;;5055164;28;20071;-88
2022/05/17 01:18:41;;;;;;;6.35;2.70;;;8.60;75.20;;;;;;5053932;28;20033;-88
2022/05/17 01:21:11;;;;;;;4.55;3.03;;;8.40;75.70;;;;;;5053690;28;20024;-88
2022/05/17 01:23:38;;;;;;;4.65;2.90;;;8.40;75.50;;;;;;5053936;28;20025;-88
2022/05/17 01:26:06;;;;;;;4.38;2.90;;;8.30;75.60;;;;;;5053826;28;20067;-88
2022/05/17 01:28:36;;;;;;;5.78;3.03;;;8.30;75.60;;;;;;5053790;28;20036;-88
2022/05/17 01:31:06;;;;;;;3.97;2.97;;;8.20;76.70;;;;;;5054971;28;20024;-88
2022/05/17 01:33:37;;;;;;;4.70;2.90;;;8.20;76.70;;;;;;5053903;28;20021;-88
2022/05/17 01:36:07;;;;;;;4.28;2.90;;;8.10;76.80;;;;;;5054832;28;20045;-88
2022/05/17 01:38:33;;;;;;;5.35;2.58;;;8.00;76.70;;;;;;5053837;28;20048;-87
2022/05/17 01:40:59;;;;;;;6.47;3.17;;;8.00;76.90;;;;;;5053595;28;20025;-88
2022/05/17 01:43:25;;;;;;;3.42;2.88;;;7.90;77.90;;;;;;5054990;28;20486;-88
2022/05/17 01:45:51;;;;;;;4.65;3.15;;;7.90;77.50;;;;;;5054673;28;20035;-88
2022/05/17 01:48:17;;;;;;;7.53;3.10;;;7.90;78.20;;;;;;5054494;28;20100;-87
2022/05/17 01:50:43;;;;;;;9.18;3.10;;;7.90;78.20;;;;;;5053498;28;20021;-88
2022/05/17 01:53:09;;;;;;;5.88;3.00;;;7.80;78.50;;;;;;5053434;28;20025;-88
2022/05/17 01:55:34;;;;;;;13.52;3.10;;;7.70;78.80;;;;;;5053321;28;20025;-88
2022/05/17 01:58:00;;;;;;;4.78;3.20;;;7.70;78.90;;;;;;5053315;28;20067;-87
2022/05/17 02:00:26;;;;;;;5.70;2.88;;;7.60;79.10;;;;;;5054667;28;20024;-88
2022/05/17 02:02:53;;;;;;;5.65;3.08;;;7.60;78.70;;;;;;5053355;28;20025;-88
2022/05/17 02:05:21;;;;;;;10.40;3.53;;;7.60;78.70;;;;;;5053526;28;20167;-88
2022/05/17 02:07:50;;;;;;;6.47;2.90;;;7.60;79.10;;;;;;5054363;28;20074;-88
2022/05/17 02:10:20;;;;;;;5.38;3.28;;;7.60;79.40;;;;;;5054376;28;20024;-88
2022/05/17 02:12:46;;;;;;;5.25;2.90;;;7.50;79.50;;;;;;5054227;28;20025;-88
2022/05/17 02:15:12;;;;;;;4.53;2.90;;;7.50;80.20;;;;;;5054645;28;20028;-87
2022/05/17 02:17:38;;;;;;;5.03;2.92;;;7.50;81.30;;;;;;5052990;28;20031;-87
2022/05/17 02:20:06;;;;;;;5.40;2.83;;;7.50;81.40;;;;;;5054299;28;20033;-88
2022/05/17 02:22:32;;;;;;;7.97;3.47;;;7.40;80.80;;;;;;5053042;28;20578;-88
2022/05/17 02:24:58;;;;;;;6.70;3.22;;;7.40;81.00;;;;;;5052977;28;20089;-87
2022/05/17 02:27:24;;;;;;;7.05;3.25;;;7.40;81.00;;;;;;5053257;28;20025;-88
2022/05/17 02:29:49;;;;;;;8.43;3.00;;;7.40;81.30;;;;;;5052945;28;20079;-88
2022/05/17 02:32:16;;;;;;;4.28;2.80;;;7.40;81.70;;;;;;5053137;28;20031;-88
2022/05/17 02:34:43;;;;;;;5.60;2.75;;;7.40;82.10;;;;;;5057613;28;20032;-87
2022/05/17 02:37:09;;;;;;;4.60;2.58;;;7.40;82.50;;;;;;5058245;28;20447;-87
2022/05/17 02:39:34;;;;;;;4.93;2.78;;;7.30;82.80;;;;;;5057024;28;20048;-88
2022/05/17 02:42:01;;;;;;;6.40;3.17;;;7.40;83.40;;;;;;5056617;28;20052;-88
2022/05/17 02:44:28;;;;;;;9.48;3.15;;;7.40;82.90;;;;;;5056878;28;20018;-88
2022/05/17 02:46:55;;;;;;;4.35;2.40;;;7.40;83.30;;;;;;5056845;28;20066;-88
2022/05/17 02:49:21;;;;;;;6.97;3.10;;;7.40;83.80;;;;;;5056723;28;20021;-88
2022/05/17 02:51:47;;;;;;;3.72;2.63;;;7.40;84.30;;;;;;5056841;28;20032;-88
2022/05/17 02:54:12;;;;;;;5.35;3.28;;;7.40;84.40;;;;;;5056431;28;20021;-88
2022/05/17 02:56:38;;;;;;;6.07;2.75;;;7.40;85.40;;;;;;5057719;28;20025;-87
2022/05/17 02:59:04;;;;;;;6.15;3.08;;;7.40;85.10;;;;;;5056740;28;20493;-88
2022/05/17 03:01:30;;;;;;;7.45;2.72;;;7.50;86.10;;;;;;5056774;28;20056;-87
2022/05/17 03:03:56;;;;;;;6.70;3.03;;;7.50;85.90;;;;;;5056579;28;20040;-87
2022/05/17 03:06:22;;;;;;;8.57;3.05;;;7.60;85.90;;;;;;5056540;28;20027;-87
2022/05/17 03:08:48;;;;;;;10.02;3.33;;;7.60;85.70;;;;;;5057769;28;20060;-88
2022/05/17 03:11:14;;;;;;;4.03;2.60;;;7.70;86.00;;;;;;5056471;28;20060;-88
2022/05/17 03:13:41;;;;;;;5.53;2.80;;;7.70;85.80;;;;;;5056434;28;20029;-88
2022/05/17 03:16:06;;;;;;;5.68;2.55;;;7.80;85.80;;;;;;5056305;28;20072;-88
2022/05/17 03:18:33;;;;;;;4.60;2.05;;;7.90;85.40;;;;;;5056387;28;20025;-88
2022/05/17 03:20:59;;;;;;;7.75;2.22;;;8.00;83.70;;;;;;5056289;28;20036;-88
2022/05/17 03:23:24;;;;;;;7.30;2.83;;;8.20;83.20;;;;;;5057424;28;20025;-88
2022/05/17 03:25:50;;;;;;;6.93;2.55;;;8.40;82.60;;;;;;5056291;28;20024;-88
2022/05/17 03:28:16;;;;;;;4.60;2.58;;;8.50;81.70;;;;;;5056194;28;20035;-88
2022/05/17 03:30:43;;;;;;;6.38;2.80;;;8.70;81.00;;;;;;5059904;28;20091;-87
2022/05/17 03:33:09;;;;;;;7.85;2.35;;;8.80;80.40;;;;;;5066130;28;20017;-87
2022/05/17 03:35:35;;;;;;;3.95;2.10;;;8.90;80.00;;;;;;5064788;28;20041;-85
2022/05/17 03:38:01;;;;;;;4.25;2.20;;;9.10;79.00;;;;;;5065444;28;20033;-88
2022/05/17 03:40:27;;;;;;;5.43;2.25;;;9.20;79.00;;;;;;5064232;28;20025;-89
2022/05/17 03:42:52;;;;;;;3.05;2.08;;;9.30;78.40;;;;;;5066983;28;20028;-88
2022/05/17 03:45:18;;;;;;;3.17;2.20;;;9.40;78.40;;;;;;5066607;28;20383;-89
2022/05/17 03:47:44;;;;;;;2.65;1.83;;;9.40;78.10;;;;;;5065474;28;20037;-88
2022/05/17 03:50:12;;;;;;;5.97;2.05;;;9.50;77.80;;;;;;5058423;28;20075;-88
2022/05/17 03:52:38;;;;;;;5.45;2.17;;;9.50;77.70;;;;;;5055792;28;20076;-90
2022/05/17 03:55:07;;;;;;;4.75;2.20;;;9.50;77.40;;;;;;5057093;28;20104;-88
2022/05/17 03:57:33;;;;;;;7.47;2.30;;;9.60;77.90;;;;;;5061236;28;20082;-89
2022/05/17 03:59:58;;;;;;;2.35;2.00;;;9.60;77.00;;;;;;5058833;28;20036;-90
2022/05/17 04:02:25;;;;;;;7.50;2.58;;;9.70;77.20;;;;;;5065266;28;20079;-89
2022/05/17 04:04:55;;;;;;;3.80;2.08;;;9.80;77.20;;;;;;5066310;28;20077;-88
2022/05/17 04:07:22;;;;;;;5.32;2.40;;;9.80;77.40;;;;;;5063289;28;20025;-90
2022/05/17 04:09:48;;;;;;;5.40;2.33;;;9.90;77.40;;;;;;5065458;28;20027;-89
2022/05/17 04:12:14;;;;;;;3.10;2.08;;;10.00;77.00;;;;;;5065946;28;20024;-90
2022/05/17 04:14:40;;;;;;;4.53;2.28;;;10.20;77.10;;;;;;5067061;28;20025;-90
2022/05/17 04:17:06;;;;;;;8.38;2.40;;;10.30;76.80;;;;;;5067811;28;20045;-89
2022/05/17 04:19:32;;;;;;;5.95;2.70;;;10.40;76.50;;;;;;5065098;28;20517;-90
2022/05/17 04:22:00;;;;;;;6.25;2.63;;;10.60;76.10;;;;;;5065872;28;20048;-89
2022/05/17 04:24:26;;;;;;;4.18;2.50;;;10.70;75.90;;;;;;5063933;28;20028;-90
2022/05/17 04:26:53;;;;;;;8.30;2.42;;;10.70;75.90;;;;;;5066408;28;20524;-89
2022/05/17 04:29:19;;;;;;;6.03;2.63;;;10.80;75.70;;;;;;5063658;28;20058;-89
2022/05/17 04:31:46;;;;;;;6.75;2.85;;;10.90;75.80;;;;;;5064802;28;20539;-89
2022/05/17 04:34:12;;;;;;;5.05;2.80;;;11.00;75.40;;;;;;5064578;28;20056;-88
2022/05/17 04:36:38;;;;;;;3.90;2.58;;;11.20;75.00;;;;;;5070205;28;20084;-90
2022/05/17 04:39:04;;;;;;;9.63;3.05;;;11.30;75.00;;;;;;5075717;28;20026;-90
2022/05/17 04:41:30;;;;;;;5.22;2.60;;;11.40;74.80;;;;;;5058492;28;20032;-91
2022/05/17 04:43:55;;;;;;;5.07;2.70;;;11.30;75.10;;;;;;5054730;28;20029;-89
2022/05/17 04:46:21;;;;;;;9.10;3.00;;;11.40;75.40;;;;;;5054749;28;20029;-90
2022/05/17 04:48:47;;;;;;;5.95;3.15;;;11.50;75.80;;;;;;5058649;28;20036;-90
2022/05/17 04:51:14;;;;;;;7.43;2.72;;;11.60;75.50;;;;;;5075404;28;20383;-89
2022/05/17 04:53:42;;;;;;;4.95;2.65;;;11.80;74.80;;;;;;5076553;28;20020;-88
2022/05/17 04:56:08;;;;;;;10.13;2.67;;;11.90;73.60;;;;;;5073673;28;20025;-88
2022/05/17 04:58:34;;;;;;;7.03;2.47;;;12.00;74.20;;;;;;5075251;28;20239;-87
2022/05/17 05:01:01;;;;;;;3.00;2.42;;;12.20;73.30;;;;;;5074249;28;20116;-86
2022/05/17 05:03:27;;;;;;;5.82;2.13;;;12.30;73.00;;;;;;5074229;28;20028;-89
2022/05/17 05:05:53;;;;;;;8.95;2.65;;;12.50;69.50;;;;;;5075351;28;20475;-87
2022/05/17 05:08:19;;;;;;;4.35;2.20;;;12.70;67.70;;;;;;5073126;28;20070;-87
2022/05/17 05:10:45;;;;;;;6.40;2.60;;;13.10;65.80;;;;;;5072226;28;20078;-90
2022/05/17 05:13:22;;;;;;;3.78;1.90;;;13.40;64.30;;;;;;5073111;28;20017;-88
2022/05/17 05:15:48;;;;;;;10.63;2.70;;;13.60;64.20;;;;;;5073265;28;20059;-86
2022/05/17 05:18:14;;;;;;;8.57;2.38;;;13.80;62.40;;;;;;5071931;28;20452;-90
2022/05/17 05:20:42;;;;;;;5.25;2.50;;;14.00;62.90;;;;;;5071857;28;20035;-88
2022/05/17 05:23:08;;;;;;;7.15;2.70;;;14.20;61.50;;;;;;5073739;28;20031;-87
2022/05/17 05:25:35;;;;;;;6.45;2.65;;;14.40;61.70;;;;;;5074974;28;20068;-86
2022/05/17 05:28:01;;;;;;;4.05;2.20;;;14.60;61.30;;;;;;5073626;28;20027;-88
2022/05/17 05:30:29;;;;;;;4.70;2.03;;;14.80;59.50;;;;;;5073634;28;20025;-87
2022/05/17 05:32:55;;;;;;;5.30;2.30;;;14.90;59.10;;;;;;5073658;28;20029;-87
2022/05/17 05:35:21;;;;;;;8.50;2.60;;;15.10;58.00;;;;;;5074424;28;20097;-86
2022/05/17 05:37:48;;;;;;;3.80;2.30;;;15.20;57.70;;;;;;5073585;28;20029;-87
2022/05/17 05:40:14;;;;;;;4.95;2.20;;;15.20;57.30;;;;;;5073416;28;20035;-89
2022/05/17 05:42:41;;;;;;;2.70;2.20;;;15.30;56.90;;;;;;5074484;28;20490;-87
2022/05/17 05:45:08;;;;;;;9.85;2.60;;;15.40;57.30;;;;;;5074642;28;20036;-88
2022/05/17 05:47:34;;;;;;;4.00;2.00;;;15.50;57.30;;;;;;5074334;28;20044;-87
2022/05/17 05:50:00;;;;;;;4.68;2.08;;;15.60;56.80;;;;;;5074635;28;20025;-88
2022/05/17 05:52:26;;;;;;;4.70;1.70;;;15.70;55.00;;;;;;5074260;28;20414;-88
2022/05/17 05:54:52;;;;;;;3.40;1.90;;;15.80;54.00;;;;;;5074130;28;20071;-86
2022/05/17 05:57:18;;;;;;;4.90;1.80;;;15.80;54.00;;;;;;5074444;28;20070;-86
2022/05/17 05:59:44;;;;;;;5.55;1.70;;;15.90;54.90;;;;;;5074445;28;20024;-86
2022/05/17 06:02:11;;;;;;;6.40;1.85;;;16.00;54.40;;;;;;5073209;28;20073;-86
2022/05/17 06:04:37;;;;;;;3.80;1.77;;;16.00;54.10;;;;;;5072740;28;20052;-86
2022/05/17 06:07:04;;;;;;;4.35;1.63;;;16.10;54.60;;;;;;5072255;28;20056;-87
2022/05/17 06:09:30;;;;;;;5.22;1.60;;;16.20;54.20;;;;;;5073396;28;20137;-87
2022/05/17 06:11:55;;;;;;;6.55;1.60;;;16.30;54.70;;;;;;5072934;28;20074;-87
2022/05/17 06:14:22;;;;;;;3.05;1.73;;;16.30;54.30;;;;;;5073369;28;20028;-87
2022/05/17 06:16:49;;;;;;;3.25;1.50;;;16.40;53.60;;;;;;5072944;28;20107;-86
2022/05/17 06:19:15;;;;;;;6.50;1.48;;;16.50;54.00;;;;;;5073018;28;20514;-86
2022/05/17 06:21:41;;;;;;;1.77;1.23;;;16.60;54.10;;;;;;5072974;28;20169;-88
2022/05/17 06:24:07;;;;;;;2.78;1.63;;;16.70;54.10;;;;;;5072536;28;20365;-86
2022/05/17 06:26:33;;;;;;;1.80;1.30;;;16.90;54.00;;;;;;5072703;28;20378;-85
2022/05/17 06:28:59;;;;;;;6.53;1.50;;;17.00;53.20;;;;;;5072762;28;20025;-86
2022/05/17 06:31:25;;;;;;;4.85;1.73;;;17.00;53.10;;;;;;5072816;28;20016;-87
2022/05/17 06:33:51;;;;;;;3.05;1.52;;;17.00;53.70;;;;;;5073116;28;20070;-91
2022/05/17 06:36:17;;;;;;;3.50;1.70;;;17.00;53.40;;;;;;5072503;28;20053;-88
2022/05/17 06:38:43;;;;;;;1.90;1.40;;;17.00;54.00;;;;;;5073182;28;20097;-88
2022/05/17 06:41:08;;;;;;;3.72;1.50;;;17.00;53.40;;;;;;5072746;28;20070;-89
2022/05/17 06:43:34;;;;;;;3.67;1.52;;;17.10;53.70;;;;;;5072775;28;20048;-88
2022/05/17 06:46:01;;;;;;;2.75;1.20;;;17.20;53.70;;;;;;5073995;28;20056;-88
2022/05/17 06:48:28;;;;;;;2.70;1.42;;;17.40;54.20;;;;;;5074023;28;20031;-90
2022/05/17 06:50:54;;;;;;;5.72;1.67;;;17.60;53.50;;;;;;5072722;28;20067;-88
2022/05/17 06:53:20;;;;;;;3.88;1.55;;;17.70;52.00;;;;;;5072558;28;20028;-90
2022/05/17 06:55:46;;;;;;;2.38;1.58;;;17.60;51.40;;;;;;5073679;28;20379;-89
2022/05/17 06:58:11;;;;;;;2.50;1.40;;;17.70;51.80;;;;;;5072445;28;20031;-86
2022/05/17 07:00:37;;;;;;;10.32;1.73;;;17.70;51.90;;;;;;5073554;28;20060;-89
2022/05/17 07:03:03;;;;;;;5.30;1.55;;;17.80;51.50;;;;;;5072517;28;20151;-87
2022/05/17 07:05:29;;;;;;;2.88;1.35;;;17.80;51.30;;;;;;5072631;28;20112;-87
2022/05/17 07:08:00;;;;;;;3.97;1.55;;;17.90;51.70;;;;;;5072492;28;20081;-87
2022/05/17 07:13:13;;;;;;;2.30;1.52;;;18.10;51.30;;;;;;5073754;28;20071;-87
2022/05/17 07:15:47;;;;;;;4.93;1.52;;;18.10;51.50;;;;;;5073363;28;20051;-90
2022/05/17 07:18:19;;;;;;;7.40;1.80;;;18.00;51.00;;;;;;5072277;28;20162;-87
2022/05/17 07:20:46;;;;;;;3.20;1.80;;;17.80;51.60;;;;;;5075557;28;20032;-86
2022/05/17 07:23:12;;;;;;;4.75;1.58;;;18.00;52.10;;;;;;5075974;28;20388;-89
2022/05/17 07:25:42;;;;;;;4.53;1.50;;;18.00;51.10;;;;;;5075982;28;20028;-88
2022/05/17 07:28:09;;;;;;;7.38;1.98;;;18.00;51.20;;;;;;5075888;28;20378;-89
2022/05/17 07:30:35;;;;;;;3.88;1.23;;;18.00;51.90;;;;;;5075827;28;20025;-87
2022/05/17 07:33:01;;;;;;;4.22;1.20;;;17.90;51.20;;;;;;5075543;28;20021;-87
2022/05/17 07:35:27;;;;;;;2.55;1.38;;;17.80;51.70;;;;;;5075630;28;20052;-89
2022/05/17 07:37:52;;;;;;;3.17;1.40;;;17.80;51.70;;;;;;5075391;28;20032;-86
2022/05/17 07:40:19;;;;;;;2.13;1.33;;;17.90;50.60;;;;;;5075529;28;20036;-86
2022/05/17 07:42:45;;;;;;;3.33;1.20;;;18.00;50.60;;;;;;5075558;28;20024;-87
2022/05/17 07:45:13;;;;;;;1.40;1.30;;;18.10;51.00;;;;;;5076834;28;20025;-85
2022/05/17 07:47:39;;;;;;;2.42;1.20;;;18.30;50.60;;;;;;5076847;28;20021;-88
2022/05/17 07:50:05;;;;;;;0.75;0.75;;;18.40;50.40;;;;;;5076925;28;20459;-87
2022/05/17 07:52:31;;;;;;;1.45;0.77;;;18.40;49.40;;;;;;5076465;28;20099;-86
2022/05/17 07:54:59;;;;;;;3.72;1.00;;;18.40;48.20;;;;;;5076499;28;20051;-89
2022/05/17 07:57:26;;;;;;;5.68;1.10;;;18.60;48.50;;;;;;5058637;28;20033;-85
2022/05/17 07:59:51;;;;;;;5.25;1.20;;;18.70;48.40;;;;;;5075188;28;20078;-86
2022/05/17 08:02:18;;;;;;;2.92;1.17;;;18.90;47.80;;;;;;5076340;28;20195;-88
2022/05/17 08:04:43;;;;;;;4.22;1.33;;;19.00;47.70;;;;;;5075381;28;20041;-85
2022/05/17 08:07:09;;;;;;;2.42;1.13;;;18.90;48.30;;;;;;5075036;28;20024;-89
2022/05/17 08:09:37;;;;;;;7.47;1.65;;;18.90;48.30;;;;;;5075412;28;20036;-87
2022/05/17 08:12:06;;;;;;;4.40;1.52;;;18.90;48.70;;;;;;5075283;28;20024;-88
2022/05/17 08:14:34;;;;;;;3.83;1.33;;;18.80;48.20;;;;;;5075262;28;20032;-89
2022/05/17 08:17:01;;;;;;;5.32;1.10;;;18.90;48.00;;;;;;5075100;28;20024;-89
2022/05/17 08:19:27;;;;;;;4.45;1.10;;;19.00;48.40;;;;;;5075004;28;20027;-87
2022/05/17 08:21:53;;;;;;;1.73;1.17;;;18.80;48.20;;;;;;5075070;28;20017;-88
2022/05/17 08:24:18;;;;;;;2.92;1.33;;;18.70;48.70;;;;;;5075133;28;20032;-89
2022/05/17 08:29:28;;;;;;;5.68;1.33;;;18.80;49.00;;;;;;5076028;28;20031;-90
2022/05/17 08:34:38;;;;;;;1.10;1.00;;;19.10;47.20;;;;;;5076519;28;20035;-87
2022/05/17 08:37:04;;;;;;;1.60;1.40;;;19.40;48.00;;;;;;5074546;28;20053;-88
2022/05/17 08:39:31;;;;;;;3.10;1.20;;;19.50;47.30;;;;;;5074677;28;20454;-88
2022/05/17 08:42:04;;;;;;;2.45;1.30;;;19.60;46.90;;;;;;5075070;28;20031;-87
2022/05/17 08:44:51;;;;;;;3.10;1.33;;;19.50;47.10;;;;;;5075852;28;20387;-88
2022/05/17 08:47:19;;;;;;;4.47;1.33;;;19.70;48.00;;;;;;5074343;28;20031;-87
2022/05/17 08:50:03;;;;;;;2.65;1.20;;;19.60;46.60;;;;;;5075602;28;20027;-85
2022/05/17 08:52:31;;;;;;;2.97;1.10;;;19.60;46.60;;;;;;5075342;28;20043;-87
2022/05/17 08:55:20;;;;;;;2.80;1.35;;;19.60;47.00;;;;;;5074278;28;20089;-86
2022/05/17 08:57:51;;;;;;;0.85;0.85;;;19.70;47.50;;;;;;5073588;28;20040;-89
2022/05/17 09:00:22;;;;;;;1.20;0.98;;;19.80;46.50;;;;;;5074545;28;20494;-90
2022/05/17 09:03:34;;;;;;;5.40;1.10;;;20.00;46.80;;;;;;5074338;28;20036;-88
2022/05/17 09:06:09;;;;;;;2.08;1.17;;;20.30;45.20;;;;;;5074057;28;20042;-89
2022/05/17 09:08:44;;;;;;;5.15;1.27;;;20.20;45.50;;;;;;5074048;28;20539;-86
2022/05/17 09:11:24;;;;;;;3.00;2.50;;;20.40;46.30;;;;;;5074125;28;20032;-88
2022/05/17 09:14:15;;;;;;;4.70;1.27;;;20.60;46.10;;;;;;5075135;28;20017;-87
2022/05/17 09:16:45;;;;;;;4.57;1.58;;;20.60;45.90;;;;;;5063089;28;20475;-88
2022/05/17 09:19:12;;;;;;;9.32;4.43;;;20.70;45.90;;;;;;5074960;28;20074;-88
2022/05/17 09:21:41;;;;;;;7.07;2.90;;;20.40;45.90;;;;;;5074196;28;20405;-88
2022/05/17 09:24:14;;;;;;;5.90;1.45;;;20.20;46.40;;;;;;5074083;28;20024;-90
2022/05/17 09:26:46;;;;;;;2.55;1.60;;;20.10;46.20;;;;;;5073714;28;20032;-88
2022/05/17 09:29:33;;;;;;;1.92;1.10;;;20.00;46.40;;;;;;5073702;28;20067;-90
2022/05/17 09:32:03;;;;;;;7.05;0.82;;;20.00;45.60;;;;;;5074791;28;20025;-89
2022/05/17 09:34:36;;;;;;;2.80;1.30;;;20.00;44.60;;;;;;5073738;28;20021;-89
2022/05/17 09:37:17;;;;;;;3.90;1.13;;;20.00;45.20;;;;;;5073263;28;20044;-89
2022/05/17 09:39:51;;;;;;;7.00;1.02;;;19.90;45.40;;;;;;5074068;28;20424;-88
2022/05/17 09:42:33;;;;;;;2.72;0.93;;;20.00;45.60;;;;;;5073056;28;20024;-85
2022/05/17 09:45:11;;;;;;;1.95;0.93;;;19.90;46.00;;;;;;5073160;28;20020;-86
2022/05/17 09:47:56;;;;;;;1.42;0.95;;;19.80;46.60;;;;;;5073098;28;20029;-87
2022/05/17 09:53:14;;;;;;;5.13;1.08;;;19.90;46.40;;;;;;5074702;28;20081;-86
2022/05/17 09:55:43;;;;;;;2.78;1.17;;;19.80;46.50;;;;;;5073372;28;20482;-88
2022/05/17 09:58:29;;;;;;;1.98;1.15;;;19.90;47.00;;;;;;5073269;28;20475;-89
2022/05/17 10:00:56;;;;;;;2.95;1.10;;;19.60;45.60;;;;;;5073346;28;20021;-88
2022/05/17 10:03:39;;;;;;;0.80;0.80;;;19.70;46.50;;;;;;5073037;28;20029;-86
2022/05/17 10:06:06;;;;;;;1.08;0.90;;;19.60;48.40;;;;;;5073070;28;20024;-86
2022/05/17 10:08:38;;;;;;;2.25;1.05;;;19.60;47.70;;;;;;5074064;28;20348;-87
2022/05/17 10:11:17;;;;;;;2.72;0.82;;;19.50;46.20;;;;;;5072888;28;20025;-86
2022/05/17 10:14:07;;;;;;;1.27;0.68;;;19.60;45.50;;;;;;5074279;28;20050;-90
2022/05/17 10:16:36;;;;;;;;;;;19.80;47.10;;;;;;5073521;28;20051;-88
2022/05/17 10:19:24;;;;;;;2.47;0.80;;;19.90;46.20;;;;;;5073194;28;20407;-89
2022/05/17 10:21:49;;;;;;;3.17;1.00;;;19.90;45.80;;;;;;5072949;28;20249;-91
2022/05/17 10:24:35;;;;;;;2.28;0.98;;;19.90;46.00;;;;;;5073084;28;20477;-90
2022/05/17 10:27:10;;;;;;;5.57;1.33;;;19.90;46.00;;;;;;5072960;28;20060;-89
2022/05/17 10:29:45;;;;;;;1.65;0.98;;;19.80;46.30;;;;;;5072841;28;20363;-88
2022/05/17 10:32:32;;;;;;;1.85;1.00;;;19.80;46.40;;;;;;5072860;28;20024;-90
2022/05/17 10:35:30;;;;;;;2.35;0.98;;;19.90;46.60;;;;;;5072531;28;20024;-88
2022/05/17 10:38:01;;;;;;;1.88;0.80;;;20.00;46.00;;;;;;5072830;28;20029;-88
2022/05/17 10:40:35;;;;;;;3.53;1.30;;;20.10;45.30;;;;;;5072838;28;20028;-90
2022/05/17 10:43:03;;;;;;;11.65;1.02;;;20.10;45.40;;;;;;5072986;28;20052;-87
2022/05/17 10:45:33;;;;;;;1.33;1.20;;;20.00;45.70;;;;;;5073718;28;20029;-86
2022/05/17 10:48:04;;;;;;;4.40;1.17;;;20.20;45.30;;;;;;5074010;28;20021;-89
2022/05/17 10:50:36;;;;;;;3.42;1.15;;;20.30;45.20;;;;;;5072602;28;20528;-89
2022/05/17 10:53:20;;;;;;;2.55;1.30;;;20.20;45.20;;;;;;5072720;28;20048;-90
2022/05/17 10:56:11;;;;;;;1.90;1.00;;;20.30;45.20;;;;;;5075853;28;20048;-90
2022/05/17 10:58:40;;;;;;;2.72;1.10;;;20.20;45.00;;;;;;5076659;28;20483;-87
2022/05/17 11:01:21;;;;;;;0.90;0.90;;;20.40;45.10;;;;;;5077805;28;20024;-86
2022/05/17 11:04:14;;;;;;;1.25;1.05;;;20.80;44.80;;;;;;5076582;28;20538;-86
2022/05/17 11:06:46;;;;;;;8.40;1.10;;;20.90;43.60;;;;;;5076119;28;20101;-90
2022/05/17 11:09:47;;;;;;;7.07;1.08;;;21.00;44.20;;;;;;5077413;28;20478;-88
2022/05/17 11:12:16;;;;;;;3.13;0.70;;;20.90;43.90;;;;;;5051211;28;20109;-88
2022/05/17 11:14:53;;;;;;;7.97;1.45;;;20.90;44.00;;;;;;5076002;28;20020;-85
2022/05/17 11:17:50;;;;;;;2.65;0.80;;;20.80;44.30;;;;;;5075845;28;20471;-88
2022/05/17 11:20:31;;;;;;;4.40;1.08;;;20.60;43.30;;;;;;5076219;28;20379;-85
2022/05/17 11:23:25;;;;;;;1.83;1.00;;;20.50;43.50;;;;;;5076908;28;20095;-86
2022/05/17 11:26:15;;;;;;;2.95;1.00;;;20.50;44.20;;;;;;5075825;28;20032;-88
2022/05/17 11:29:15;;;;;;;3.05;0.77;;;20.50;43.80;;;;;;5076762;28;20024;-87
2022/05/17 11:32:43;;;;;;;2.40;0.90;;;20.60;43.80;;;;;;5075497;28;20528;-86
2022/05/17 11:35:27;;;;;;;1.70;1.02;;;20.70;43.50;;;;;;4973173;28;20043;-87
2022/05/17 11:37:54;;;;;;;5.18;1.30;;;20.70;43.50;;;;;;5067323;28;20044;-85
2022/05/17 11:40:47;;;;;;;3.00;1.02;;;20.80;43.20;;;;;;5075330;28;20486;-87
2022/05/17 11:46:04;;;;;;;2.35;0.93;;;21.00;43.10;;;;;;5076754;28;20028;-85
2022/05/17 11:48:54;;;;;;;2.58;0.90;;;21.50;43.50;;;;;;5075380;28;20386;-86
2022/05/17 11:51:22;;;;;;;2.67;1.10;;;22.40;42.50;;;;;;5063057;28;20032;-85
2022/05/17 11:53:51;;;;;;;1.17;1.00;;;22.70;42.30;;;;;;5076177;28;20033;-87
2022/05/17 11:56:16;;;;;;;1.10;1.00;;;22.50;42.30;;;;;;5075352;28;20425;-87
2022/05/17 11:58:45;;;;;;;1.73;1.63;;;22.20;41.80;;;;;;5075168;28;20029;-88
2022/05/17 12:01:27;;;;;;;3.13;1.20;;;21.90;42.60;;;;;;5075137;28;20424;-87
2022/05/17 12:04:04;;;;;;;3.55;1.60;;;21.90;43.00;;;;;;5075263;28;20032;-85
2022/05/17 12:06:36;;;;;;;1.50;0.85;;;22.20;43.80;;;;;;5074875;28;20483;-85
2022/05/17 12:09:26;;;;;;;6.50;1.20;;;22.90;42.50;;;;;;5074816;28;20470;-88
2022/05/17 12:12:18;;;;;;;7.22;1.67;;;23.30;41.40;;;;;;5075026;28;20028;-86
2022/05/17 12:14:52;;;;;;;3.72;1.17;;;23.50;41.50;;;;;;5076245;28;20100;-90
2022/05/17 12:17:33;;;;;;;3.72;1.17;;;24.30;39.90;;;;;;5074776;28;20028;-86
2022/05/17 12:20:10;;;;;;;3.38;1.20;;;24.00;40.00;;;;;;5076073;28;20020;-89
2022/05/17 12:23:17;;;;;;;0.77;0.68;;;23.60;40.30;;;;;;5074898;28;20021;-87
2022/05/17 12:26:00;;;;;;;4.13;1.00;;;24.20;40.50;;;;;;5075669;28;20016;-86
2022/05/17 12:28:35;;;;;;;7.53;2.22;;;24.60;39.50;;;;;;5074510;28;20028;-89
2022/05/17 12:31:07;;;;;;;4.00;3.58;;;24.60;38.80;;;;;;5074541;28;20020;-87
2022/05/17 12:33:46;;;;;;;2.00;1.08;;;24.30;39.40;;;;;;5075823;28;20463;-90
2022/05/17 12:36:25;;;;;;;5.40;1.00;;;24.60;39.50;;;;;;5074185;28;20085;-86
2022/05/17 12:44:48;;;;;;;5.40;0.95;;;23.60;39.70;;;;;;5076039;28;20035;-91
2022/05/17 12:47:54;;;;;;;5.00;1.03;;;23.40;39.90;;;;;;5075042;28;20070;-90
2022/05/17 12:50:42;;;;;;;2.95;1.13;;;23.60;39.80;;;;;;5075665;28;20474;-89
2022/05/17 12:53:19;;;;;;;1.13;0.75;;;23.80;40.10;;;;;;5074421;28;20048;-89
2022/05/17 12:56:01;;;;;;;4.65;1.52;;;23.50;39.40;;;;;;5074349;28;20020;-89
2022/05/17 12:58:27;;;;;;;2.97;1.15;;;23.00;39.60;;;;;;5074293;28;20024;-88
2022/05/17 13:00:55;;;;;;;1.10;0.80;;;23.20;40.40;;;;;;5074150;28;20077;-87
2022/05/17 13:03:25;;;;;;;3.10;1.25;;;23.80;39.70;;;;;;5074228;28;20020;-92
2022/05/17 13:05:55;;;;;;;2.25;1.00;;;24.60;39.30;;;;;;5074166;28;20024;-87
2022/05/17 13:08:22;;;;;;;;;;;25.30;38.40;;;;;;5074609;28;20474;-88
2022/05/17 13:11:17;;;;;;;2.20;0.77;;;26.00;37.80;;;;;;5075177;28;19908;-89
2022/05/17 13:13:44;;;;;;;4.68;0.93;;;26.30;37.80;;;;;;5073938;28;20137;-86
2022/05/17 13:16:40;;;;;;;3.85;1.45;;;25.30;37.20;;;;;;5073637;28;20036;-87
2022/05/17 13:19:13;;;;;;;1.38;1.20;;;24.80;38.20;;;;;;5053748;28;20047;-86
2022/05/17 13:21:42;;;;;;;5.35;1.45;;;24.60;38.10;;;;;;5073705;28;20489;-86
2022/05/17 13:24:22;;;;;;;3.40;1.20;;;24.40;39.10;;;;;;5074910;28;20035;-87
2022/05/17 13:26:49;;;;;;;2.10;1.00;;;24.30;38.70;;;;;;5074634;28;20111;-87
2022/05/17 13:29:28;;;;;;;4.43;1.55;;;23.70;39.60;;;;;;5073711;28;20028;-87
2022/05/17 13:32:17;;;;;;;4.80;1.42;;;23.20;40.20;;;;;;5073632;28;20021;-87